C969 KMCI-KSTJ
Flight info
| Callsign | C969 |
|---|---|
| Flight time | 0h 17m |
| Altitude | 4000 |
| Route | MCI |
| Aircraft | C172/L-SFG/C |
Departure
| Time | 2026-05-05 23:43 |
|---|---|
| Airport | Kansas City International Airport (KMCI) |
Arrival
| Time | 2026-05-06 00:00 |
|---|---|
| Airport | Rosecrans Memorial Airport (KSTJ) |
| Time | Latitude | Longitude | Altitude | Speed | Heading |
|---|---|---|---|---|---|
| 2026-05-05 23:32 | 39.30627 | -94.72046 | 1005 ft | 0 kts | 148° |
| 2026-05-05 23:36 | 39.30624 | -94.72035 | 1005 ft | 7 kts | 81° |
| 2026-05-05 23:37 | 39.30674 | -94.72068 | 1005 ft | 9 kts | 314° |
| 2026-05-05 23:37 | 39.30691 | -94.72135 | 1005 ft | 7 kts | 282° |
| 2026-05-05 23:37 | 39.30693 | -94.72243 | 1005 ft | 16 kts | 208° |
| 2026-05-05 23:37 | 39.30600 | -94.72274 | 1006 ft | 12 kts | 189° |
| 2026-05-05 23:38 | 39.30455 | -94.72328 | 1008 ft | 26 kts | 196° |
| 2026-05-05 23:38 | 39.30328 | -94.72358 | 1010 ft | 14 kts | 179° |
| 2026-05-05 23:38 | 39.30357 | -94.72371 | 1009 ft | 8 kts | 34° |
| 2026-05-05 23:38 | 39.30418 | -94.72338 | 1009 ft | 11 kts | 11° |
| 2026-05-05 23:39 | 39.30537 | -94.72300 | 1007 ft | 20 kts | 13° |
| 2026-05-05 23:39 | 39.30683 | -94.72257 | 1005 ft | 30 kts | 13° |
| 2026-05-05 23:39 | 39.30871 | -94.72201 | 1003 ft | 25 kts | 13° |
| 2026-05-05 23:39 | 39.31040 | -94.72150 | 1001 ft | 26 kts | 13° |
| 2026-05-05 23:40 | 39.31226 | -94.72097 | 999 ft | 28 kts | 12° |
| 2026-05-05 23:40 | 39.31421 | -94.72040 | 996 ft | 28 kts | 14° |
| 2026-05-05 23:40 | 39.31592 | -94.71982 | 994 ft | 24 kts | 13° |
| 2026-05-05 23:40 | 39.31757 | -94.71937 | 993 ft | 29 kts | 12° |
| 2026-05-05 23:41 | 39.31935 | -94.71886 | 991 ft | 24 kts | 12° |
| 2026-05-05 23:41 | 39.32084 | -94.71865 | 989 ft | 19 kts | 324° |
| 2026-05-05 23:41 | 39.32112 | -94.71989 | 990 ft | 4 kts | 283° |
| 2026-05-05 23:41 | 39.32114 | -94.71995 | 990 ft | 0 kts | 283° |
| 2026-05-05 23:42 | 39.32119 | -94.72023 | 993 ft | 14 kts | 283° |
| 2026-05-05 23:42 | 39.32073 | -94.72120 | 991 ft | 14 kts | 195° |
| 2026-05-05 23:42 | 39.31861 | -94.72187 | 994 ft | 58 kts | 193° |
| 2026-05-05 23:42 | 39.31407 | -94.72322 | 1162 ft | 70 kts | 193° |
| 2026-05-05 23:43 | 39.30885 | -94.72482 | 1344 ft | 79 kts | 195° |
| 2026-05-05 23:43 | 39.30514 | -94.72918 | 1589 ft | 78 kts | 268° |
| 2026-05-05 23:43 | 39.30502 | -94.73570 | 1864 ft | 75 kts | 264° |
| 2026-05-05 23:43 | 39.30477 | -94.74215 | 2120 ft | 73 kts | 275° |
| 2026-05-05 23:44 | 39.30726 | -94.74816 | 2317 ft | 80 kts | 323° |
| 2026-05-05 23:44 | 39.31171 | -94.75222 | 2611 ft | 81 kts | 326° |
| 2026-05-05 23:44 | 39.31676 | -94.75605 | 2885 ft | 87 kts | 330° |
| 2026-05-05 23:44 | 39.32230 | -94.75974 | 3163 ft | 91 kts | 333° |
| 2026-05-05 23:45 | 39.32791 | -94.76364 | 3453 ft | 92 kts | 330° |
| 2026-05-05 23:45 | 39.33362 | -94.76774 | 3675 ft | 98 kts | 332° |
| 2026-05-05 23:45 | 39.33960 | -94.77176 | 3902 ft | 97 kts | 335° |
| 2026-05-05 23:45 | 39.34555 | -94.77582 | 4115 ft | 102 kts | 330° |
| 2026-05-05 23:46 | 39.35257 | -94.78042 | 4106 ft | 115 kts | 342° |
| 2026-05-05 23:46 | 39.36024 | -94.78280 | 4284 ft | 100 kts | 349° |
| 2026-05-05 23:46 | 39.36741 | -94.78422 | 4454 ft | 106 kts | 352° |
| 2026-05-05 23:46 | 39.37467 | -94.78523 | 4604 ft | 106 kts | 346° |
| 2026-05-05 23:47 | 39.38243 | -94.78768 | 4024 ft | 113 kts | 347° |
| 2026-05-05 23:47 | 39.38974 | -94.78955 | 4078 ft | 105 kts | 348° |
| 2026-05-05 23:47 | 39.39683 | -94.79104 | 4144 ft | 100 kts | 352° |
| 2026-05-05 23:47 | 39.40364 | -94.79348 | 4099 ft | 107 kts | 342° |
| 2026-05-05 23:48 | 39.41098 | -94.79628 | 4087 ft | 109 kts | 346° |
| 2026-05-05 23:48 | 39.41821 | -94.79844 | 4134 ft | 111 kts | 348° |
| 2026-05-05 23:48 | 39.42596 | -94.80062 | 4196 ft | 117 kts | 347° |
| 2026-05-05 23:48 | 39.43413 | -94.80275 | 4218 ft | 122 kts | 349° |
| 2026-05-05 23:49 | 39.44247 | -94.80459 | 4274 ft | 121 kts | 350° |
| 2026-05-05 23:49 | 39.45076 | -94.80627 | 4331 ft | 119 kts | 351° |
| 2026-05-05 23:49 | 39.45617 | -94.80730 | 4387 ft | 117 kts | 351° |
| 2026-05-05 23:49 | 39.46657 | -94.80943 | 3993 ft | 111 kts | 349° |
| 2026-05-05 23:50 | 39.47161 | -94.81058 | 4044 ft | 111 kts | 349° |
| 2026-05-05 23:50 | 39.48187 | -94.81300 | 4139 ft | 111 kts | 349° |
| 2026-05-05 23:50 | 39.48697 | -94.81423 | 4145 ft | 113 kts | 348° |
| 2026-05-05 23:50 | 39.49746 | -94.81688 | 4193 ft | 117 kts | 348° |
| 2026-05-05 23:51 | 39.50293 | -94.81824 | 4171 ft | 121 kts | 350° |
| 2026-05-05 23:51 | 39.51141 | -94.82014 | 4105 ft | 125 kts | 346° |
| 2026-05-05 23:51 | 39.51978 | -94.82261 | 4077 ft | 122 kts | 346° |
| 2026-05-05 23:51 | 39.52789 | -94.82517 | 4123 ft | 118 kts | 345° |
| 2026-05-05 23:52 | 39.53583 | -94.82775 | 4197 ft | 117 kts | 346° |
| 2026-05-05 23:52 | 39.54373 | -94.83014 | 4223 ft | 119 kts | 346° |
| 2026-05-05 23:52 | 39.55134 | -94.83167 | 4411 ft | 109 kts | 351° |
| 2026-05-05 23:52 | 39.55906 | -94.83360 | 4351 ft | 116 kts | 343° |
| 2026-05-05 23:53 | 39.56728 | -94.83661 | 4196 ft | 125 kts | 343° |
| 2026-05-05 23:53 | 39.57568 | -94.83978 | 3958 ft | 125 kts | 343° |
| 2026-05-05 23:53 | 39.58428 | -94.84274 | 3638 ft | 133 kts | 345° |
| 2026-05-05 23:53 | 39.59323 | -94.84594 | 3345 ft | 135 kts | 343° |
| 2026-05-05 23:54 | 39.60218 | -94.84942 | 2949 ft | 130 kts | 342° |
| 2026-05-05 23:54 | 39.61032 | -94.85273 | 2579 ft | 118 kts | 341° |
| 2026-05-05 23:54 | 39.61766 | -94.85560 | 2354 ft | 100 kts | 343° |
| 2026-05-05 23:54 | 39.62432 | -94.85789 | 2171 ft | 100 kts | 345° |
| 2026-05-05 23:55 | 39.63099 | -94.85993 | 2120 ft | 101 kts | 347° |
| 2026-05-05 23:55 | 39.63795 | -94.86173 | 2102 ft | 100 kts | 349° |
| 2026-05-05 23:55 | 39.64495 | -94.86320 | 2074 ft | 99 kts | 348° |
| 2026-05-05 23:55 | 39.65155 | -94.86518 | 2119 ft | 94 kts | 345° |
| 2026-05-05 23:56 | 39.65794 | -94.86712 | 2128 ft | 94 kts | 347° |
| 2026-05-05 23:56 | 39.66437 | -94.86893 | 2147 ft | 99 kts | 347° |
| 2026-05-05 23:56 | 39.67091 | -94.87137 | 2159 ft | 97 kts | 338° |
| 2026-05-05 23:56 | 39.67591 | -94.87690 | 2170 ft | 96 kts | 310° |
| 2026-05-05 23:57 | 39.68029 | -94.88324 | 2200 ft | 94 kts | 321° |
| 2026-05-05 23:57 | 39.68641 | -94.88713 | 2159 ft | 102 kts | 338° |
| 2026-05-05 23:57 | 39.69303 | -94.89041 | 2174 ft | 99 kts | 341° |
| 2026-05-05 23:57 | 39.69965 | -94.89294 | 2147 ft | 99 kts | 341° |
| 2026-05-05 23:58 | 39.70618 | -94.89554 | 2060 ft | 99 kts | 342° |
| 2026-05-05 23:58 | 39.71273 | -94.89815 | 1973 ft | 98 kts | 342° |
| 2026-05-05 23:58 | 39.71901 | -94.90156 | 1886 ft | 98 kts | 335° |
| 2026-05-05 23:58 | 39.72542 | -94.90473 | 1767 ft | 99 kts | 340° |
| 2026-05-05 23:59 | 39.73197 | -94.90651 | 1660 ft | 91 kts | 354° |
| 2026-05-05 23:59 | 39.73792 | -94.90686 | 1535 ft | 84 kts | 359° |
| 2026-05-05 23:59 | 39.74376 | -94.90687 | 1376 ft | 83 kts | 360° |
| 2026-05-05 23:59 | 39.74921 | -94.90679 | 1187 ft | 76 kts | 359° |
| 2026-05-06 00:00 | 39.75439 | -94.90681 | 1023 ft | 75 kts | 360° |
| 2026-05-06 00:00 | 39.75953 | -94.90683 | 919 ft | 71 kts | 358° |
| 2026-05-06 00:00 | 39.76452 | -94.90686 | 829 ft | 72 kts | 360° |
| 2026-05-06 00:00 | 39.76904 | -94.90688 | 813 ft | 49 kts | 359° |
| 2026-05-06 00:01 | 39.77040 | -94.90614 | 815 ft | 16 kts | 92° |
| 2026-05-06 00:01 | 39.77067 | -94.90501 | 815 ft | 12 kts | 11° |
| 2026-05-06 00:01 | 39.77184 | -94.90508 | 815 ft | 20 kts | 1° |
| 2026-05-06 00:01 | 39.77273 | -94.90429 | 815 ft | 12 kts | 358° |
| 2026-05-06 00:02 | 39.77301 | -94.90466 | 815 ft | 0 kts | 271° |